Time;durP1;ratioP1;P1;durP2;ratioP2;P2;SDS_P1;SDS_P2;PMS_P1;PMS_P2;Temp;Humidity;BMP_temperature;BMP_pressure;BME280_temperature;BME280_humidity;BME280_pressure;Samples;Min_cycle;Max_cycle;Signal;HPM_P1;HPM_P2
2023/11/18 00:01:54;;;;;;;16.10;10.78;;;;;;;0.76;97.11;100381.80;1739670;82;25432;-45
2023/11/18 00:04:20;;;;;;;17.52;11.43;;;;;;;0.75;97.09;100382.33;1739773;82;25586;-45
2023/11/18 00:06:47;;;;;;;17.67;11.90;;;;;;;0.76;97.10;100384.46;1739641;82;27322;-46
2023/11/18 00:09:15;;;;;;;17.00;11.88;;;;;;;0.76;97.09;100387.13;1739648;82;25652;-45
2023/11/18 00:11:43;;;;;;;20.23;11.88;;;;;;;0.74;97.13;100384.16;1739695;82;25458;-45
2023/11/18 00:14:12;;;;;;;14.30;10.53;;;;;;;0.76;97.19;100387.13;1739631;82;26039;-44
2023/11/18 00:16:39;;;;;;;16.20;10.88;;;;;;;0.74;97.19;100379.37;1739732;82;25198;-45
2023/11/18 00:19:09;;;;;;;16.65;11.38;;;;;;;0.74;97.24;100382.03;1739668;82;27204;-44
2023/11/18 00:21:36;;;;;;;16.02;11.00;;;;;;;0.73;97.27;100382.57;1739138;82;26038;-44
2023/11/18 00:24:07;;;;;;;17.35;11.90;;;;;;;0.76;97.31;100383.13;1740271;82;25702;-48
2023/11/18 00:29:33;;;;;;;15.68;10.10;;;;;;;0.73;97.23;100396.39;1810852;75;25650;-46
2023/11/18 00:32:06;;;;;;;15.50;11.12;;;;;;;0.73;97.27;100404.38;1820832;78;27330;-45
2023/11/18 00:34:34;;;;;;;15.43;10.25;;;;;;;0.73;97.30;100404.38;1820882;78;25445;-46
2023/11/18 00:37:00;;;;;;;15.45;10.82;;;;;;;0.72;97.31;100411.56;1820934;78;25618;-45
2023/11/18 00:39:27;;;;;;;16.90;11.33;;;;;;;0.72;97.33;100410.23;1820661;78;25647;-46
2023/11/18 00:41:55;;;;;;;13.98;10.10;;;;;;;0.70;97.35;100411.00;1795079;78;25709;-46
2023/11/18 00:44:22;;;;;;;12.60;9.53;;;;;;;0.70;97.38;100411.00;1819548;78;27728;-46
2023/11/18 00:46:49;;;;;;;14.07;10.03;;;;;;;0.70;97.41;100418.19;1820005;78;25717;-49
2023/11/18 00:49:16;;;;;;;12.35;10.00;;;;;;;0.69;97.47;100415.23;1820081;78;25973;-47
2023/11/18 00:51:42;;;;;;;14.38;10.18;;;;;;;0.70;97.51;100412.87;1820031;78;25698;-45
2023/11/18 00:54:09;;;;;;;14.10;10.43;;;;;;;0.71;97.50;100419.79;1820144;78;25696;-45
2023/11/18 00:56:36;;;;;;;15.10;9.88;;;;;;;0.71;97.48;100417.92;1820814;78;28389;-45
2023/11/18 00:59:03;;;;;;;12.37;9.75;;;;;;;0.70;97.46;100415.00;1820861;78;25753;-47
2023/11/18 01:01:31;;;;;;;13.72;10.25;;;;;;;0.71;97.46;100423.78;1820863;78;25659;-45
2023/11/18 01:03:59;;;;;;;14.15;10.03;;;;;;;0.71;97.47;100427.78;1820891;78;25470;-48
2023/11/18 01:06:27;;;;;;;13.98;9.48;;;;;;;0.70;97.51;100430.97;1820973;78;25448;-46
2023/11/18 01:08:54;;;;;;;13.15;9.10;;;;;;;0.70;97.55;100425.64;1820896;78;27211;-45
2023/11/18 01:11:22;;;;;;;14.13;10.28;;;;;;;0.70;97.55;100434.97;1820869;78;25570;-45
2023/11/18 01:13:54;;;;;;;14.38;9.95;;;;;;;0.70;97.59;100430.97;1820937;78;25541;-46
2023/11/18 01:16:21;;;;;;;12.70;9.43;;;;;;;0.71;97.61;100430.44;1797819;78;27456;-49
2023/11/18 01:18:48;;;;;;;13.48;9.30;;;;;;;0.70;97.58;100425.64;1820928;78;25652;-45
2023/11/18 01:21:17;;;;;;;13.22;9.60;;;;;;;0.70;97.57;100429.64;1820889;78;27282;-46
2023/11/18 01:23:44;;;;;;;15.65;10.18;;;;;;;0.71;97.55;100435.23;1820835;78;25613;-45
2023/11/18 01:26:12;;;;;;;14.50;10.13;;;;;;;0.70;97.56;100427.52;1820916;78;25442;-46
2023/11/18 01:28:41;;;;;;;14.55;9.58;;;;;;;0.70;97.54;100438.16;1821966;78;25392;-46
2023/11/18 01:31:09;;;;;;;12.47;8.50;;;;;;;0.68;97.58;100433.07;1826258;78;25631;-45
2023/11/18 01:33:40;;;;;;;12.13;8.38;;;;;;;0.70;97.67;100431.50;1817702;79;28368;-45
2023/11/18 01:36:10;;;;;;;12.33;9.23;;;;;;;0.70;97.73;100437.63;1817680;79;25622;-46
2023/11/18 01:38:37;;;;;;;12.50;8.73;;;;;;;0.70;97.71;100423.52;1817700;79;25397;-45
2023/11/18 01:41:06;;;;;;;11.00;7.55;;;;;;;0.70;97.65;100423.52;1817629;79;25643;-45
2023/11/18 01:43:33;;;;;;;13.60;8.83;;;;;;;0.69;97.67;100416.56;1817348;78;32309;-45
2023/11/18 01:46:10;;;;;;;12.30;8.73;;;;;;;0.69;97.68;100416.56;1817727;79;27746;-45
2023/11/18 01:48:37;;;;;;;12.18;8.28;;;;;;;0.70;97.78;100418.19;1817622;78;25361;-44
2023/11/18 01:51:08;;;;;;;13.40;9.28;;;;;;;0.69;97.68;100412.04;1817699;79;25660;-44
2023/11/18 01:53:39;;;;;;;11.57;8.45;;;;;;;0.69;97.72;100410.70;1817694;79;25714;-44
2023/11/18 01:56:08;;;;;;;10.85;7.95;;;;;;;0.70;97.71;100415.53;1817799;79;25452;-48
2023/11/18 01:58:35;;;;;;;11.80;8.40;;;;;;;0.69;97.66;100422.69;1817835;79;32831;-45
2023/11/18 02:01:08;;;;;;;11.28;8.73;;;;;;;0.68;97.68;100416.27;1817591;79;25370;-45
2023/11/18 02:03:35;;;;;;;10.85;8.30;;;;;;;0.67;97.63;100420.00;1817662;78;25527;-45
2023/11/18 02:06:05;;;;;;;10.98;7.83;;;;;;;0.67;97.66;100422.66;1817615;79;25575;-46
2023/11/18 02:08:35;;;;;;;11.08;8.40;;;;;;;0.66;97.73;100420.50;1817708;79;25571;-46
2023/11/18 02:11:17;;;;;;;;;;;;;;;0.67;97.75;100423.98;1820386;78;27265;-45
2023/11/18 02:13:48;;;;;;;10.72;7.70;;;;;;;0.66;97.77;100427.69;1784924;80;25495;-46
2023/11/18 02:16:16;;;;;;;10.53;7.80;;;;;;;0.64;97.85;100431.92;1784155;80;26094;-45
2023/11/18 02:18:43;;;;;;;10.88;8.23;;;;;;;0.64;97.87;100427.13;1783718;80;25857;-47
2023/11/18 02:21:11;;;;;;;10.68;7.72;;;;;;;0.64;97.89;100429.25;1784749;80;25454;-46
2023/11/18 02:23:39;;;;;;;10.03;7.42;;;;;;;0.64;97.95;100433.78;1785007;80;28012;-47
2023/11/18 02:26:05;;;;;;;10.90;7.45;;;;;;;0.63;97.93;100432.98;1784910;80;25600;-45
2023/11/18 02:28:33;;;;;;;10.08;7.67;;;;;;;0.61;97.92;100428.39;1784909;80;25482;-46
2023/11/18 02:31:05;;;;;;;10.20;7.58;;;;;;;0.62;97.93;100438.02;1784973;80;26317;-45
2023/11/18 02:33:55;;;;;;;12.05;7.25;;;;;;;0.60;97.90;100433.45;1784257;80;25500;-49
2023/11/18 02:36:36;;;;;;;10.68;7.40;;;;;;;0.61;97.96;100435.05;1783963;80;27898;-47
2023/11/18 02:39:02;;;;;;;10.30;7.90;;;;;;;0.61;98.05;100444.37;1784746;80;25741;-46
2023/11/18 02:41:30;;;;;;;8.18;6.75;;;;;;;0.60;98.07;100442.77;1785114;80;25562;-46
2023/11/18 02:43:58;;;;;;;9.25;6.83;;;;;;;0.62;98.13;100447.86;1784957;80;25440;-46
2023/11/18 02:46:28;;;;;;;8.85;7.17;;;;;;;0.61;98.11;100448.36;1785014;80;25455;-46
2023/11/18 02:48:55;;;;;;;8.75;6.87;;;;;;;0.61;98.13;100451.55;1784948;80;27314;-46
2023/11/18 02:51:22;;;;;;;8.78;6.90;;;;;;;0.61;98.14;100450.23;1813700;79;25573;-44
2023/11/18 02:53:49;;;;;;;9.15;6.67;;;;;;;0.60;98.15;100449.43;1792579;79;25629;-45
2023/11/18 02:56:18;;;;;;;9.30;6.95;;;;;;;0.61;98.13;100455.55;1817591;78;25885;-46
2023/11/18 02:58:45;;;;;;;9.55;7.10;;;;;;;0.59;98.10;100454.45;1817728;78;25432;-45
2023/11/18 03:01:11;;;;;;;7.97;6.70;;;;;;;0.60;98.16;100460.61;1817632;78;27319;-45
2023/11/18 03:03:38;;;;;;;9.30;6.42;;;;;;;0.60;98.19;100463.27;1817544;79;25548;-45
2023/11/18 03:06:06;;;;;;;8.30;6.22;;;;;;;0.60;98.21;100468.06;1817648;79;25631;-46
2023/11/18 03:08:33;;;;;;;8.13;6.58;;;;;;;0.60;98.22;100465.94;1817617;79;25594;-44
2023/11/18 03:10:59;;;;;;;8.23;6.28;;;;;;;0.60;98.21;100464.07;1817691;79;25442;-43
2023/11/18 03:13:26;;;;;;;8.30;6.37;;;;;;;0.59;98.18;100465.10;1817662;79;27375;-45
2023/11/18 03:15:52;;;;;;;7.90;6.25;;;;;;;0.59;98.13;100468.30;1817586;79;25599;-44
2023/11/18 03:18:19;;;;;;;8.03;6.42;;;;;;;0.57;98.13;100473.06;1817668;79;25448;-45
2023/11/18 03:20:45;;;;;;;8.80;6.53;;;;;;;0.57;98.18;100477.05;1817605;79;26006;-45
2023/11/18 03:23:12;;;;;;;7.87;6.37;;;;;;;0.57;98.22;100482.38;1793130;80;25658;-44
2023/11/18 03:25:39;;;;;;;8.58;6.28;;;;;;;0.56;98.22;100478.88;1793352;80;27883;-49
2023/11/18 03:28:06;;;;;;;8.08;6.05;;;;;;;0.57;98.33;100485.04;1793217;80;25515;-45
2023/11/18 03:30:36;;;;;;;7.22;5.95;;;;;;;0.56;98.29;100486.87;1793230;79;25544;-44
2023/11/18 03:33:03;;;;;;;7.87;6.20;;;;;;;0.56;98.29;100489.53;1793327;80;25688;-45
2023/11/18 03:35:31;;;;;;;9.63;6.03;;;;;;;0.55;98.37;100490.59;1793317;80;25573;-46
2023/11/18 03:37:58;;;;;;;10.55;6.87;;;;;;;0.55;98.37;100489.27;1793317;80;27328;-47
2023/11/18 03:40:25;;;;;;;8.03;6.12;;;;;;;0.55;98.35;100494.59;1793185;80;25594;-45
2023/11/18 03:42:53;;;;;;;7.40;5.95;;;;;;;0.53;98.31;100489.50;1793277;80;25597;-48
2023/11/18 03:45:20;;;;;;;6.85;5.65;;;;;;;0.53;98.36;100490.03;1793253;80;25549;-46
2023/11/18 03:47:49;;;;;;;7.80;6.35;;;;;;;0.52;98.37;100495.86;1805222;79;25484;-46
2023/11/18 03:50:17;;;;;;;6.95;5.60;;;;;;;0.52;98.34;100495.86;1817688;79;27310;-45
2023/11/18 03:52:44;;;;;;;7.47;6.20;;;;;;;0.51;98.36;100502.24;1792394;79;25409;-48
2023/11/18 03:55:12;;;;;;;7.75;5.72;;;;;;;0.51;98.40;100510.23;1817623;79;25478;-46
2023/11/18 03:57:38;;;;;;;8.05;5.83;;;;;;;0.51;98.43;100506.23;1817565;79;25523;-48
2023/11/18 04:00:07;;;;;;;7.95;5.37;;;;;;;0.52;98.35;100512.36;1817802;79;25602;-45
2023/11/18 04:02:35;;;;;;;8.95;5.95;;;;;;;0.51;98.36;100514.72;1817784;79;33223;-44
2023/11/18 04:05:03;;;;;;;7.95;6.25;;;;;;;0.49;98.37;100510.96;1817518;78;26094;-47
2023/11/18 04:07:30;;;;;;;8.83;6.50;;;;;;;0.50;98.35;100511.80;1817812;79;25550;-45
2023/11/18 04:09:57;;;;;;;7.05;5.87;;;;;;;0.49;98.43;100519.48;1817788;79;25843;-45
2023/11/18 04:12:23;;;;;;;8.78;5.65;;;;;;;0.49;98.48;100520.81;1817861;79;25581;-44
2023/11/18 04:14:50;;;;;;;6.47;5.60;;;;;;;0.49;98.49;100523.47;1817883;79;27210;-44
2023/11/18 04:17:16;;;;;;;8.03;6.28;;;;;;;0.47;98.52;100521.58;1817770;79;25381;-44
2023/11/18 04:19:43;;;;;;;9.48;7.53;;;;;;;0.47;98.49;100522.91;1792605;79;25525;-44
2023/11/18 04:22:09;;;;;;;6.37;5.05;;;;;;;0.48;98.58;100525.33;1817712;78;25628;-44
2023/11/18 04:24:36;;;;;;;7.45;5.30;;;;;;;0.47;98.58;100522.91;1817812;79;25611;-43
2023/11/18 04:27:02;;;;;;;7.70;6.15;;;;;;;0.47;98.59;100526.37;1817774;79;27546;-43
2023/11/18 04:29:30;;;;;;;6.75;5.70;;;;;;;0.47;98.60;100526.37;1817649;79;25603;-43
2023/11/18 04:31:56;;;;;;;9.08;6.12;;;;;;;0.47;98.58;100518.91;1817827;78;25558;-44
2023/11/18 04:34:24;;;;;;;8.90;6.15;;;;;;;0.46;98.59;100522.11;1817755;79;25810;-44
2023/11/18 04:36:52;;;;;;;6.83;5.80;;;;;;;0.46;98.62;100524.77;1817777;79;25448;-45
2023/11/18 04:39:20;;;;;;;8.78;6.35;;;;;;;0.46;98.60;100525.27;1792341;79;27256;-45
2023/11/18 04:41:47;;;;;;;8.08;6.20;;;;;;;0.44;98.61;100531.36;1817638;79;25601;-46
2023/11/18 04:44:16;;;;;;;6.40;5.60;;;;;;;0.45;98.63;100532.98;1817756;79;25537;-44
2023/11/18 04:46:42;;;;;;;8.38;6.10;;;;;;;0.44;98.62;100534.02;1817566;78;25583;-45
2023/11/18 04:49:08;;;;;;;7.78;6.03;;;;;;;0.44;98.68;100541.47;1817786;79;25481;-46
2023/11/18 04:51:35;;;;;;;6.75;5.22;;;;;;;0.44;98.67;100543.33;1817741;78;27469;-47
2023/11/18 04:54:03;;;;;;;8.15;5.87;;;;;;;0.44;98.66;100543.33;1817631;79;25525;-45
2023/11/18 04:56:29;;;;;;;7.58;6.08;;;;;;;0.43;98.66;100541.20;1817732;79;25479;-45
2023/11/18 04:58:56;;;;;;;6.42;5.62;;;;;;;0.44;98.62;100538.01;1817691;79;25480;-44
2023/11/18 05:01:22;;;;;;;7.33;5.58;;;;;;;0.43;98.62;100541.73;1817716;79;25471;-46
2023/11/18 05:03:49;;;;;;;6.03;5.33;;;;;;;0.43;98.65;100542.53;1817713;79;27330;-45
2023/11/18 05:06:15;;;;;;;6.78;5.70;;;;;;;0.42;98.56;100547.55;1817563;79;25394;-44
2023/11/18 05:08:42;;;;;;;6.62;5.58;;;;;;;0.43;98.60;100552.37;1817806;79;25553;-45
2023/11/18 05:11:09;;;;;;;6.37;5.60;;;;;;;0.41;98.55;100546.45;1817663;79;26317;-45
2023/11/18 05:13:35;;;;;;;8.08;5.72;;;;;;;0.41;98.56;100555.77;1817734;79;25453;-45
2023/11/18 05:16:03;;;;;;;8.63;5.62;;;;;;;0.40;98.57;100558.16;1817668;79;27445;-43
2023/11/18 05:18:34;;;;;;;9.83;5.75;;;;;;;0.38;98.57;100558.39;1817568;78;25623;-44
2023/11/18 05:20:58;;;;;;;6.55;5.00;;;;;;;0.38;98.62;100562.39;1817239;78;25543;-45
2023/11/18 05:23:25;;;;;;;7.42;5.78;;;;;;;0.37;98.70;100566.08;1817587;79;25970;-45
2023/11/18 05:25:51;;;;;;;6.55;5.22;;;;;;;0.36;98.69;100571.13;1817803;79;25435;-45
2023/11/18 05:28:19;;;;;;;5.87;5.17;;;;;;;0.36;98.79;100568.47;1817707;79;27326;-46
2023/11/18 05:30:46;;;;;;;5.85;4.97;;;;;;;0.36;98.88;100576.45;1817505;78;25485;-45
2023/11/18 05:33:17;;;;;;;7.00;5.40;;;;;;;0.34;98.70;100580.68;1817652;79;25565;-43
2023/11/18 05:35:48;;;;;;;5.53;4.92;;;;;;;0.34;98.66;100584.67;1817484;78;25370;-46
2023/11/18 05:38:11;;;;;;;7.42;5.70;;;;;;;0.33;98.73;100587.56;1816914;78;25569;-44
2023/11/18 05:40:42;;;;;;;8.00;5.30;;;;;;;0.32;98.76;100590.75;1817663;79;27425;-45
2023/11/18 05:43:15;;;;;;;6.97;5.62;;;;;;;0.32;98.86;100589.92;1816963;78;25395;-44
2023/11/18 05:45:55;;;;;;;7.37;5.40;;;;;;;0.34;98.92;100597.98;1816141;78;25603;-44
2023/11/18 05:48:03;;;;;;;6.62;4.72;;;;;;;0.32;98.94;100596.08;1814087;78;26202;-44
2023/11/18 05:50:30;;;;;;;5.22;4.25;;;;;;;0.33;98.95;100602.20;1817664;79;25599;-46
2023/11/18 05:52:56;;;;;;;6.25;5.03;;;;;;;0.31;98.85;100603.76;1817685;79;27960;-45
2023/11/18 05:55:23;;;;;;;9.50;6.67;;;;;;;0.31;98.85;100602.95;1817589;79;25537;-44
2023/11/18 05:57:49;;;;;;;6.17;5.17;;;;;;;0.30;98.85;100610.11;1817676;79;25536;-44
2023/11/18 06:00:19;;;;;;;6.15;4.85;;;;;;;0.31;98.99;100617.59;1817618;79;25953;-44
2023/11/18 06:02:46;;;;;;;5.80;4.92;;;;;;;0.32;99.00;100620.52;1817656;79;25199;-44
2023/11/18 06:05:13;;;;;;;5.67;4.70;;;;;;;0.33;98.96;100623.48;1817627;79;27403;-44
2023/11/18 06:07:43;;;;;;;7.12;4.87;;;;;;;0.31;98.77;100627.70;1817563;79;26063;-44
2023/11/18 06:10:09;;;;;;;6.40;4.65;;;;;;;0.29;98.74;100625.80;1817568;78;25637;-45
2023/11/18 12:15:54;;;;;;;31.57;17.48;;;;;;;0.78;100.00;100922.95;1887125;76;34543;-46
2023/11/18 12:18:19;;;;;;;;;;;;;;;0.73;100.00;100919.13;1857652;77;25388;-44
2023/11/18 12:20:55;;;;;;;29.30;16.65;;;;;;;0.74;100.00;100922.06;1858234;77;27830;-44
2023/11/18 12:23:18;;;;;;;26.35;15.68;;;;;;;0.74;100.00;100918.07;1857084;77;25260;-47
2023/11/18 12:25:46;;;;;;;27.73;16.37;;;;;;;0.79;100.00;100916.59;1858122;77;25576;-47
2023/11/18 12:28:21;;;;;;;24.75;16.00;;;;;;;0.82;100.00;100923.61;1858071;77;25547;-47
2023/11/18 12:30:52;;;;;;;26.05;16.37;;;;;;;0.86;100.00;100926.62;1857772;77;25401;-49
2023/11/18 12:33:23;;;;;;;27.20;17.00;;;;;;;0.89;100.00;100932.83;1858076;77;27865;-47
2023/11/18 12:36:07;;;;;;;25.08;16.00;;;;;;;0.94;100.00;100939.61;1858035;77;26154;-49
2023/11/18 12:39:13;;;;;;;20.62;13.50;;;;;;;0.99;100.00;100941.56;1856276;77;25520;-48
2023/11/18 12:41:41;;;;;;;22.20;14.73;;;;;;;1.03;100.00;100944.09;1786988;80;25588;-47
2023/11/18 12:44:32;;;;;;;22.65;15.68;;;;;;;1.07;100.00;100943.41;1820424;78;25204;-47
2023/11/18 12:47:14;;;;;;;27.02;17.40;;;;;;;1.13;100.00;100950.19;1788182;80;27603;-48
2023/11/18 12:49:41;;;;;;;;;;;;;;;1.18;100.00;100948.45;1822493;78;25265;-49
2023/11/18 12:52:18;;;;;;;20.77;14.28;;;;;;;1.23;100.00;100949.09;1820498;78;25556;-48
2023/11/18 12:54:43;;;;;;;22.35;15.43;;;;;;;1.25;100.00;100959.80;1786295;80;25197;-48
2023/11/18 12:57:14;;;;;;;;;;;;;;;1.29;100.00;100964.98;1823110;78;25567;-47
2023/11/18 12:59:40;;;;;;;25.12;15.63;;;;;;;1.33;99.90;100968.50;1820292;78;28549;-47
2023/11/18 13:02:19;;;;;;;24.70;15.32;;;;;;;1.33;99.74;100965.83;1787989;80;25679;-50
2023/11/18 13:04:47;;;;;;;52.00;32.83;;;;;;;1.36;99.54;100973.38;1819600;78;25577;-48
2023/11/18 13:07:13;;;;;;;146.57;90.17;;;;;;;1.41;99.64;100976.16;1787792;80;25568;-46
2023/11/18 13:09:43;;;;;;;27.07;17.50;;;;;;;1.46;99.67;100982.44;1820359;78;25450;-45
2023/11/18 13:12:14;;;;;;;23.45;16.20;;;;;;;1.52;99.65;100977.22;1788073;80;28324;-48
2023/11/18 13:14:39;;;;;;;28.57;16.57;;;;;;;1.54;99.24;100977.27;1819858;78;25631;-46
2023/11/18 13:17:12;;;;;;;25.70;16.15;;;;;;;1.54;98.77;100990.60;1788067;80;25193;-48
2023/11/18 13:19:42;;;;;;;24.92;16.10;;;;;;;1.54;98.66;100999.94;1820403;78;25916;-48
2023/11/18 13:22:13;;;;;;;26.45;16.52;;;;;;;1.51;98.23;101004.39;1788186;80;25539;-46
2023/11/18 13:24:45;;;;;;;25.75;17.27;;;;;;;1.47;97.89;101011.23;1820420;78;28304;-46
2023/11/18 13:27:19;;;;;;;24.70;16.82;;;;;;;1.44;97.58;101017.02;1787455;80;25568;-48
2023/11/18 13:29:53;;;;;;;25.72;16.62;;;;;;;1.40;97.39;101013.20;1819800;78;25536;-50
2023/11/18 13:32:25;;;;;;;30.37;19.20;;;;;;;1.37;97.39;101017.13;1787505;80;26143;-46
2023/11/18 13:34:53;;;;;;;27.80;16.87;;;;;;;1.39;97.45;101015.56;1819853;78;25418;-48
2023/11/18 13:37:22;;;;;;;27.77;17.20;;;;;;;1.38;97.41;101023.27;1787569;80;27503;-49
2023/11/18 13:39:58;;;;;;;27.40;17.05;;;;;;;1.33;97.31;101025.30;1788433;78;25946;-49
2023/11/18 13:42:31;;;;;;;24.20;16.90;;;;;;;1.32;97.17;101029.53;1756612;80;25634;-48
2023/11/18 13:45:08;;;;;;;25.52;17.50;;;;;;;1.28;97.10;101038.51;1819873;78;25604;-46
2023/11/18 13:47:36;;;;;;;29.67;17.85;;;;;;;1.26;96.88;101035.23;1813930;79;25676;-46
2023/11/18 13:50:10;;;;;;;27.02;16.50;;;;;;;1.22;96.92;101037.55;1787544;80;27377;-46
2023/11/18 13:52:41;;;;;;;25.35;17.20;;;;;;;1.18;96.81;101043.58;1818930;78;25565;-47
2023/11/18 13:55:08;;;;;;;25.52;16.25;;;;;;;1.13;96.77;101042.12;1786358;80;25633;-47
2023/11/18 13:57:35;;;;;;;25.88;16.57;;;;;;;1.08;96.85;101052.92;1788185;78;25491;-46
2023/11/18 14:00:05;;;;;;;26.77;16.77;;;;;;;1.06;96.73;101056.34;1787475;80;25482;-47
2023/11/18 14:02:31;;;;;;;27.30;16.35;;;;;;;0.99;96.73;101053.46;1819875;78;27464;-45
2023/11/18 14:05:00;;;;;;;25.25;16.27;;;;;;;0.95;96.83;101058.43;1787542;80;25525;-47
2023/11/18 14:07:28;;;;;;;31.82;16.67;;;;;;;0.91;96.74;101059.41;1787500;78;25559;-48
2023/11/18 14:09:56;;;;;;;28.05;16.62;;;;;;;0.88;96.64;101060.37;1786231;80;25703;-48
2023/11/18 14:12:27;;;;;;;27.42;17.12;;;;;;;0.85;96.79;101054.16;1818619;78;25667;-47
2023/11/18 14:14:52;;;;;;;26.30;16.82;;;;;;;0.81;96.84;101051.67;1785716;80;27604;-47
2023/11/18 14:17:21;;;;;;;29.25;17.65;;;;;;;0.79;96.90;101056.41;1818654;78;25784;-46
2023/11/18 14:19:50;;;;;;;29.60;18.42;;;;;;;0.77;96.99;101060.63;1786570;80;25700;-46
2023/11/18 14:22:18;;;;;;;28.50;17.60;;;;;;;0.75;97.05;101064.05;1819038;78;34716;-46
2023/11/18 14:24:45;;;;;;;29.05;17.75;;;;;;;0.71;96.99;101064.98;1787513;80;25482;-47
2023/11/18 14:27:13;;;;;;;27.15;17.32;;;;;;;0.68;97.04;101077.44;1787783;78;27201;-45
2023/11/18 14:29:40;;;;;;;27.13;16.80;;;;;;;0.67;97.15;101071.81;1787372;80;25590;-48
2023/11/18 14:32:08;;;;;;;30.40;19.37;;;;;;;0.66;97.28;101076.83;1819703;78;25415;-46
2023/11/18 14:34:35;;;;;;;29.72;18.17;;;;;;;0.62;97.26;101078.85;1787425;80;25691;-45
2023/11/18 14:37:02;;;;;;;34.70;18.92;;;;;;;0.61;97.27;101072.69;1819746;78;25467;-48
2023/11/18 14:39:29;;;;;;;30.17;18.23;;;;;;;0.59;97.22;101074.77;1787462;80;27818;-49
2023/11/18 14:41:56;;;;;;;30.40;18.27;;;;;;;0.56;97.28;101072.55;1819624;78;25548;-45
2023/11/18 14:44:24;;;;;;;28.73;18.17;;;;;;;0.53;97.28;101076.48;1787476;80;25522;-46
2023/11/18 14:46:51;;;;;;;31.33;18.23;;;;;;;0.51;97.36;101079.05;1819695;78;25913;-46
2023/11/18 14:49:20;;;;;;;27.58;17.57;;;;;;;0.48;97.38;101079.00;1787116;80;25562;-46
2023/11/18 14:51:47;;;;;;;34.33;19.57;;;;;;;0.47;97.45;101081.36;1819772;78;28177;-46
2023/11/18 14:54:13;;;;;;;35.25;19.12;;;;;;;0.45;97.39;101079.97;1787381;80;25271;-46
2023/11/18 14:56:40;;;;;;;30.95;17.50;;;;;;;0.43;97.42;101078.05;1819712;78;25435;-46
2023/11/18 14:59:08;;;;;;;32.60;19.07;;;;;;;0.41;97.37;101075.61;1787391;80;25911;-47
2023/11/18 15:01:36;;;;;;;31.87;18.62;;;;;;;0.40;97.28;101079.81;1819734;78;25623;-47
2023/11/18 15:04:06;;;;;;;25.40;16.65;;;;;;;0.39;97.32;101078.17;1787501;80;27552;-46
2023/11/18 15:06:33;;;;;;;31.23;18.87;;;;;;;0.36;97.35;101082.91;1788018;78;25410;-46
2023/11/18 15:09:03;;;;;;;31.30;17.12;;;;;;;0.36;97.49;101080.78;1787459;80;25314;-46
2023/11/18 15:11:33;;;;;;;30.17;17.77;;;;;;;0.33;97.57;101078.03;1819688;78;25735;-45
2023/11/18 15:13:59;;;;;;;29.07;18.23;;;;;;;0.31;97.54;101085.42;1787298;80;25602;-46
2023/11/18 15:16:27;;;;;;;31.97;19.27;;;;;;;0.31;97.54;101086.76;1819611;78;27857;-46
2023/11/18 15:18:56;;;;;;;30.97;18.90;;;;;;;0.31;97.36;101078.77;1787310;80;25624;-47
2023/11/18 15:21:26;;;;;;;29.25;17.70;;;;;;;0.29;97.41;101077.36;1819784;78;25512;-48
2023/11/18 15:24:03;;;;;;;32.30;18.87;;;;;;;0.26;97.49;101073.30;1787035;80;25322;-47
2023/11/18 15:26:27;;;;;;;29.00;18.23;;;;;;;0.26;97.41;101068.50;1816593;78;25409;-48
2023/11/18 15:28:53;;;;;;;29.10;18.45;;;;;;;0.23;97.38;101072.94;1787406;80;27459;-49
2023/11/18 15:31:24;;;;;;;30.82;17.73;;;;;;;0.23;97.45;101078.25;1819501;78;25593;-46
2023/11/18 15:33:52;;;;;;;31.00;18.85;;;;;;;0.21;97.44;101081.13;1787371;80;25607;-47
2023/11/18 15:36:21;;;;;;;31.23;19.48;;;;;;;0.22;97.57;101083.27;1819738;78;25397;-47
2023/11/18 15:38:50;;;;;;;32.20;18.85;;;;;;;0.20;97.56;101084.81;1787556;80;25572;-47
2023/11/18 15:41:19;;;;;;;85.40;37.77;;;;;;;0.19;97.57;101088.53;1819884;78;27480;-46
2023/11/18 15:43:48;;;;;;;63.55;31.05;;;;;;;0.18;97.57;101090.36;1787459;80;25919;-46
2023/11/18 15:46:17;;;;;;;40.20;22.67;;;;;;;0.18;97.65;101089.02;1819959;78;25607;-45
2023/11/18 15:48:47;;;;;;;35.92;21.12;;;;;;;0.15;97.55;101080.17;1787528;80;25195;-48
2023/11/18 15:51:17;;;;;;;35.88;19.17;;;;;;;0.14;97.51;101079.87;1819812;78;25412;-45
2023/11/18 15:53:45;;;;;;;30.75;19.02;;;;;;;0.16;97.51;101089.77;1787465;80;28250;-46
2023/11/18 15:56:15;;;;;;;32.20;19.30;;;;;;;0.14;97.51;101089.70;1819534;78;25465;-48
2023/11/18 15:58:41;;;;;;;;;;;;;;;0.14;97.50;101091.84;1790076;80;25589;-50
2023/11/18 16:01:10;;;;;;;30.72;18.32;;;;;;;0.13;97.56;101077.42;1787436;80;25566;-46
2023/11/18 16:03:41;;;;;;;31.45;18.52;;;;;;;0.11;97.55;101090.95;1787722;78;25632;-47
2023/11/18 16:06:11;;;;;;;33.13;18.50;;;;;;;0.10;97.74;101099.14;1787521;80;27650;-46
2023/11/18 16:08:38;;;;;;;31.33;18.15;;;;;;;0.09;97.81;101103.66;1819700;78;25448;-46
2023/11/18 16:11:06;;;;;;;32.17;18.75;;;;;;;0.08;97.88;101104.67;1787380;80;25497;-46
2023/11/18 16:13:34;;;;;;;30.25;18.30;;;;;;;0.08;97.98;101106.01;1819595;78;25605;-45
2023/11/18 16:16:05;;;;;;;34.23;18.95;;;;;;;0.09;97.94;101106.84;1787201;80;25587;-46
2023/11/18 16:18:36;;;;;;;34.15;20.05;;;;;;;0.09;97.90;101114.83;1819614;78;27490;-46
2023/11/18 16:21:05;;;;;;;32.42;19.55;;;;;;;0.08;97.90;101123.30;1756720;80;25246;-45
2023/11/18 16:23:34;;;;;;;;;;;;;;;0.09;97.96;101125.47;1822399;78;25514;-47
2023/11/18 16:26:02;;;;;;;37.10;20.92;;;;;;;0.10;97.99;101132.40;1819291;78;25816;-46
2023/11/18 16:28:29;;;;;;;34.33;20.30;;;;;;;0.07;97.99;101125.68;1787344;80;25655;-46
2023/11/18 16:30:56;;;;;;;33.53;19.65;;;;;;;0.09;98.01;101122.80;1819561;78;27466;-45
2023/11/18 16:33:25;;;;;;;37.40;21.40;;;;;;;0.09;98.06;101130.79;1787232;80;25566;-46
2023/11/18 16:35:53;;;;;;;33.48;20.68;;;;;;;0.09;98.02;101121.48;1819733;78;25266;-46
2023/11/18 16:38:21;;;;;;;32.70;20.30;;;;;;;0.08;97.98;101127.29;1787319;80;25477;-46
2023/11/18 16:40:50;;;;;;;36.10;20.05;;;;;;;0.08;97.98;101123.30;1819608;78;25585;-49
2023/11/18 16:43:18;;;;;;;36.25;20.60;;;;;;;0.08;98.01;101135.27;1787347;80;27835;-49
2023/11/18 16:45:47;;;;;;;39.38;22.42;;;;;;;0.09;98.30;101132.12;1819673;78;25541;-49
2023/11/18 16:48:16;;;;;;;38.98;21.10;;;;;;;0.11;98.35;101128.72;1787646;80;25524;-48
2023/11/18 16:50:45;;;;;;;39.78;21.37;;;;;;;0.14;98.14;101136.27;1819805;78;33214;-46
2023/11/18 16:53:13;;;;;;;37.93;21.17;;;;;;;0.16;98.00;101122.22;1787696;80;25218;-49
2023/11/18 16:55:39;;;;;;;38.60;21.87;;;;;;;0.17;97.81;101125.16;1819615;78;28273;-51
2023/11/18 16:58:06;;;;;;;39.15;22.50;;;;;;;0.15;97.71;101125.41;1787291;80;25665;-48
2023/11/18 17:00:34;;;;;;;37.08;21.37;;;;;;;0.15;97.81;101128.06;1819706;78;25557;-49
2023/11/18 17:03:03;;;;;;;41.88;23.25;;;;;;;0.18;97.79;101148.89;1787459;80;25862;-45
2023/11/18 17:05:32;;;;;;;40.33;22.62;;;;;;;0.15;97.85;101137.88;1819840;78;25397;-46
2023/11/18 17:21:08;;;;;;;40.45;22.32;;;;;;;0.11;97.72;101146.81;1733100;80;25878;-46
2023/11/18 17:23:39;;;;;;;36.08;21.95;;;;;;;0.13;97.70;101142.61;1705323;83;25733;-46
2023/11/18 17:26:05;;;;;;;41.00;23.57;;;;;;;0.10;97.62;101143.88;1725340;82;25454;-45
2023/11/18 17:28:32;;;;;;;36.70;22.22;;;;;;;0.10;97.58;101146.53;1705125;83;25584;-46
2023/11/18 17:30:58;;;;;;;39.18;22.70;;;;;;;0.07;97.41;101138.98;1725728;83;25400;-46
2023/11/18 17:33:25;;;;;;;40.08;23.60;;;;;;;0.07;97.38;101140.31;1725723;83;28103;-46
2023/11/18 17:35:51;;;;;;;42.00;24.63;;;;;;;0.08;97.42;101141.12;1725598;83;25437;-45
2023/11/18 17:38:19;;;;;;;41.20;22.55;;;;;;;0.06;97.38;101139.20;1725720;83;25633;-47
2023/11/18 17:40:46;;;;;;;36.70;22.30;;;;;;;0.06;97.36;101135.20;1725754;83;25415;-46
2023/11/18 17:43:12;;;;;;;43.65;24.65;;;;;;;0.03;97.41;101133.78;1689388;82;25572;-48
2023/11/18 17:45:39;;;;;;;39.70;23.83;;;;;;;0.04;97.51;101129.30;1725746;83;27905;-44
2023/11/18 17:48:08;;;;;;;38.30;23.27;;;;;;;0.02;97.52;101126.02;1725607;83;26144;-44
2023/11/18 17:50:35;;;;;;;41.08;23.98;;;;;;;0.02;97.47;101124.69;1725958;83;25440;-47